Bravado — 9HA2554 — position and weather

sailwx.info

Track history (hours):
 
Tides and Currents Weather Stations Pressure Air Temp Water Temp Dewpoint Dewpoint Depression Visibility Wind Speed Wind Dir Waves Ship Positions

Bravado

Last reported at 2017-Dec-07 00:54 UTC. Time now 2018-Feb-21 09:12 UTC.
Position N 09°08' W 079°48'.
Warning: this ship's position is months out of date.

Length 45 m; draft 2.8 m.

Type: Pleasure craft. MMSI: 248871000.

Date/timePositionNaut miles runAvg speedWind from/ knotsBaromVisibWave heightAir tempDewpointWater temp
2017-Dec-07 00:54N 09°08' W 079°48'510.1
2017-Dec-07 00:24N 09°11' W 079°52'410.6
2017-Dec-07 00:00N 09°14' W 079°55'2 4.7
2017-Dec-06 23:30N 09°16' W 079°55'0 0.4
2017-Dec-06 23:00N 09°16' W 079°55'0 0.5
2017-Dec-06 22:30N 09°17' W 079°55'1 1.9
2017-Dec-06 22:00N 09°18' W 079°55'3 5.7
2017-Dec-06 21:30N 09°21' W 079°55'  
2017-Nov-29 08:08N 25°24' W 080°04'1 9.3
2017-Nov-29 08:00N 25°25' W 080°04'5 9.4
2017-Nov-29 07:30N 25°30' W 080°03'5 9.5
2017-Nov-29 07:00N 25°35' W 080°04'5 9.9
2017-Nov-29 06:31N 25°40' W 080°04'5 9.2
2017-Nov-29 06:01N 25°44' W 080°05'3 5.0
2017-Nov-29 05:30N 25°45' W 080°07'3 7.0
2017-Nov-29 05:00N 25°47' W 080°11'0 0.6
2017-Nov-29 04:30N 25°47' W 080°11'0 0.0
2017-Nov-29 04:00N 25°47' W 080°11'0 0.0
2017-Nov-29 03:30N 25°47' W 080°11'0 0.0
2017-Nov-29 03:00N 25°47' W 080°11'0 0.0
2017-Nov-29 02:30N 25°47' W 080°11'0 0.0
2017-Nov-29 02:00N 25°47' W 080°11'0 0.0
2017-Nov-29 01:31N 25°47' W 080°11'0 0.0
2017-Nov-29 01:01N 25°47' W 080°11'0 0.0
2017-Nov-29 00:30N 25°47' W 080°11'0 0.0
2017-Nov-29 00:00N 25°47' W 080°11'0 0.0
2017-Nov-28 23:30N 25°47' W 080°11'0 0.0
2017-Nov-28 23:01N 25°47' W 080°11'0 0.0
2017-Nov-28 22:30N 25°47' W 080°11'0 0.0
2017-Nov-28 22:00N 25°47' W 080°11'0 0.0
2017-Nov-28 21:30N 25°47' W 080°11'0 0.0
2017-Nov-28 21:00N 25°47' W 080°11'0 0.0
2017-Nov-28 20:30N 25°47' W 080°11'0 0.0
2017-Nov-28 20:01N 25°47' W 080°11'0 0.0
2017-Nov-28 19:30N 25°47' W 080°11'0 0.0
2017-Nov-28 19:00N 25°47' W 080°11'0 0.0
2017-Nov-28 18:30N 25°47' W 080°11'0 0.0
2017-Nov-28 18:00N 25°47' W 080°11'0 0.0
2017-Nov-28 17:31N 25°47' W 080°11'0 0.0
2017-Nov-28 17:00N 25°47' W 080°11'0 0.0
2017-Nov-28 16:31N 25°47' W 080°11'0 0.0
2017-Nov-28 16:00N 25°47' W 080°11'0 0.0
2017-Nov-28 15:00N 25°47' W 080°11'0 0.0
2017-Nov-28 14:30N 25°47' W 080°11'0 0.0
2017-Nov-28 14:00N 25°47' W 080°11'0 0.0
2017-Nov-28 13:31N 25°47' W 080°11'0 0.0
2017-Nov-28 13:00N 25°47' W 080°11'0 0.0
2017-Nov-28 12:30N 25°47' W 080°11'0 0.0
2017-Nov-28 12:01N 25°47' W 080°11'0 0.0
2017-Nov-28 11:30N 25°47' W 080°11'0 0.0
2017-Nov-28 11:00N 25°47' W 080°11'0 0.0
2017-Nov-28 10:30N 25°47' W 080°11'0 0.0
2017-Nov-28 10:00N 25°47' W 080°11'0 0.0
2017-Nov-28 09:31N 25°47' W 080°11'0 0.0
2017-Nov-28 09:00N 25°47' W 080°11'0 0.0
2017-Nov-28 08:30N 25°47' W 080°11'0 0.0
2017-Nov-28 08:00N 25°47' W 080°11'0 0.0
2017-Nov-28 07:30N 25°47' W 080°11'0 0.0
2017-Nov-28 07:01N 25°47' W 080°11'0 0.0
2017-Nov-28 06:31N 25°47' W 080°11'0 0.0
2017-Nov-28 06:00N 25°47' W 080°11'0 0.0
2017-Nov-28 05:30N 25°47' W 080°11'0 0.0
2017-Nov-28 04:30N 25°47' W 080°11'0 0.0
2017-Nov-28 04:00N 25°47' W 080°11'0 0.0
2017-Nov-28 03:30N 25°47' W 080°11'0 0.0
2017-Nov-28 03:00N 25°47' W 080°11'0 0.0
2017-Nov-28 02:30N 25°47' W 080°11'0 0.0
2017-Nov-28 02:00N 25°47' W 080°11'0 0.0
2017-Nov-28 01:31N 25°47' W 080°11'0 0.0
2017-Nov-28 01:00N 25°47' W 080°11'0 0.0
2017-Nov-28 00:30N 25°47' W 080°11'0 0.0
2017-Nov-28 00:01N 25°47' W 080°11'0 0.0
2017-Nov-27 23:30N 25°47' W 080°11'0 0.0
2017-Nov-27 23:00N 25°47' W 080°11'0 0.0
2017-Nov-27 22:30N 25°47' W 080°11'0 0.0
2017-Nov-27 22:01N 25°47' W 080°11'0 0.0
2017-Nov-27 21:30N 25°47' W 080°11'0 0.0
2017-Nov-27 21:00N 25°47' W 080°11'0 0.0
2017-Nov-27 20:31N 25°47' W 080°11'0 0.0
2017-Nov-27 20:00N 25°47' W 080°11'0 0.0
2017-Nov-27 19:31N 25°47' W 080°11'0 0.0
2017-Nov-27 19:01N 25°47' W 080°11'0 0.0
2017-Nov-27 18:30N 25°47' W 080°11'0 0.0
2017-Nov-27 18:00N 25°47' W 080°11'0 0.0
2017-Nov-27 17:30N 25°47' W 080°11'0 0.0
2017-Nov-27 17:00N 25°47' W 080°11'0 0.0
2017-Nov-27 16:30N 25°47' W 080°11'0 0.0
2017-Nov-27 16:00N 25°47' W 080°11'0 0.0
2017-Nov-27 15:30N 25°47' W 080°11'0 0.0
2017-Nov-27 15:00N 25°47' W 080°11'0 0.0
2017-Nov-27 14:31N 25°47' W 080°11'0 0.0
2017-Nov-27 14:01N 25°47' W 080°11'0 0.0
2017-Nov-27 13:30N 25°47' W 080°11'0 0.0
2017-Nov-27 13:01N 25°47' W 080°11'0 0.0
2017-Nov-27 12:30N 25°47' W 080°11'0 0.0
2017-Nov-27 12:00N 25°47' W 080°11'0 0.0
2017-Nov-27 11:31N 25°47' W 080°11'0 0.0
2017-Nov-27 11:00N 25°47' W 080°11'0 0.0
2017-Nov-27 10:30N 25°47' W 080°11'0 0.0
2017-Nov-27 10:01N 25°47' W 080°11'0 0.0
2017-Nov-27 09:30N 25°47' W 080°11'0 0.0
2017-Nov-27 09:00N 25°47' W 080°11'0 0.0
2017-Nov-27 08:31N 25°47' W 080°11'0 0.0
2017-Nov-27 08:01N 25°47' W 080°11'0 0.0
2017-Nov-27 07:30N 25°47' W 080°11'0 0.0
2017-Nov-27 07:00N 25°47' W 080°11'0 0.0
2017-Nov-27 06:31N 25°47' W 080°11'0 0.0
2017-Nov-27 06:00N 25°47' W 080°11'0 0.0
2017-Nov-27 05:30N 25°47' W 080°11'0 0.0
2017-Nov-27 05:01N 25°47' W 080°11'0 0.0
2017-Nov-27 04:30N 25°47' W 080°11'0 0.0
2017-Nov-27 04:00N 25°47' W 080°11'0 0.0
2017-Nov-27 03:30N 25°47' W 080°11'0 0.0
2017-Nov-27 03:01N 25°47' W 080°11'0 0.0
2017-Nov-27 02:31N 25°47' W 080°11'0 0.0
2017-Nov-27 02:00N 25°47' W 080°11'0 0.0
2017-Nov-27 01:30N 25°47' W 080°11'0 0.0
2017-Nov-27 01:00N 25°47' W 080°11'  
Track history (hours):
 
Tides and Currents Weather Stations Pressure Air Temp Water Temp Dewpoint Dewpoint Depression Visibility Wind Speed Wind Dir Waves Ship Positions

Bravado

Last reported at 2017-Dec-07 00:54 UTC. Time now 2018-Feb-21 09:12 UTC.
Position N 09°08' W 079°48'.
Warning: this ship's position is months out of date.

Length 45 m; draft 2.8 m.

Type: Pleasure craft. MMSI: 248871000.

Date/timePositionNaut miles runAvg speedWind from/ knotsBaromVisibWave heightAir tempDewpointWater temp
2017-Dec-07 00:54N 09°08' W 079°48'510.1
2017-Dec-07 00:24N 09°11' W 079°52'410.6
2017-Dec-07 00:00N 09°14' W 079°55'2 4.7
2017-Dec-06 23:30N 09°16' W 079°55'0 0.4
2017-Dec-06 23:00N 09°16' W 079°55'0 0.5
2017-Dec-06 22:30N 09°17' W 079°55'1 1.9
2017-Dec-06 22:00N 09°18' W 079°55'3 5.7
2017-Dec-06 21:30N 09°21' W 079°55'  
2017-Nov-29 08:08N 25°24' W 080°04'1 9.3
2017-Nov-29 08:00N 25°25' W 080°04'5 9.4
2017-Nov-29 07:30N 25°30' W 080°03'5 9.5
2017-Nov-29 07:00N 25°35' W 080°04'5 9.9
2017-Nov-29 06:31N 25°40' W 080°04'5 9.2
2017-Nov-29 06:01N 25°44' W 080°05'3 5.0
2017-Nov-29 05:30N 25°45' W 080°07'3 7.0
2017-Nov-29 05:00N 25°47' W 080°11'0 0.6
2017-Nov-29 04:30N 25°47' W 080°11'0 0.0
2017-Nov-29 04:00N 25°47' W 080°11'0 0.0
2017-Nov-29 03:30N 25°47' W 080°11'0 0.0
2017-Nov-29 03:00N 25°47' W 080°11'0 0.0
2017-Nov-29 02:30N 25°47' W 080°11'0 0.0
2017-Nov-29 02:00N 25°47' W 080°11'0 0.0
2017-Nov-29 01:31N 25°47' W 080°11'0 0.0
2017-Nov-29 01:01N 25°47' W 080°11'0 0.0
2017-Nov-29 00:30N 25°47' W 080°11'0 0.0
2017-Nov-29 00:00N 25°47' W 080°11'0 0.0
2017-Nov-28 23:30N 25°47' W 080°11'0 0.0
2017-Nov-28 23:01N 25°47' W 080°11'0 0.0
2017-Nov-28 22:30N 25°47' W 080°11'0 0.0
2017-Nov-28 22:00N 25°47' W 080°11'0 0.0
2017-Nov-28 21:30N 25°47' W 080°11'0 0.0
2017-Nov-28 21:00N 25°47' W 080°11'0 0.0
2017-Nov-28 20:30N 25°47' W 080°11'0 0.0
2017-Nov-28 20:01N 25°47' W 080°11'0 0.0
2017-Nov-28 19:30N 25°47' W 080°11'0 0.0
2017-Nov-28 19:00N 25°47' W 080°11'0 0.0
2017-Nov-28 18:30N 25°47' W 080°11'0 0.0
2017-Nov-28 18:00N 25°47' W 080°11'0 0.0
2017-Nov-28 17:31N 25°47' W 080°11'0 0.0
2017-Nov-28 17:00N 25°47' W 080°11'0 0.0
2017-Nov-28 16:31N 25°47' W 080°11'0 0.0
2017-Nov-28 16:00N 25°47' W 080°11'0 0.0
2017-Nov-28 15:00N 25°47' W 080°11'0 0.0
2017-Nov-28 14:30N 25°47' W 080°11'0 0.0
2017-Nov-28 14:00N 25°47' W 080°11'0 0.0
2017-Nov-28 13:31N 25°47' W 080°11'0 0.0
2017-Nov-28 13:00N 25°47' W 080°11'0 0.0
2017-Nov-28 12:30N 25°47' W 080°11'0 0.0
2017-Nov-28 12:01N 25°47' W 080°11'0 0.0
2017-Nov-28 11:30N 25°47' W 080°11'0 0.0
2017-Nov-28 11:00N 25°47' W 080°11'0 0.0
2017-Nov-28 10:30N 25°47' W 080°11'0 0.0
2017-Nov-28 10:00N 25°47' W 080°11'0 0.0
2017-Nov-28 09:31N 25°47' W 080°11'0 0.0
2017-Nov-28 09:00N 25°47' W 080°11'0 0.0
2017-Nov-28 08:30N 25°47' W 080°11'0 0.0
2017-Nov-28 08:00N 25°47' W 080°11'0 0.0
2017-Nov-28 07:30N 25°47' W 080°11'0 0.0
2017-Nov-28 07:01N 25°47' W 080°11'0 0.0
2017-Nov-28 06:31N 25°47' W 080°11'0 0.0
2017-Nov-28 06:00N 25°47' W 080°11'0 0.0
2017-Nov-28 05:30N 25°47' W 080°11'0 0.0
2017-Nov-28 04:30N 25°47' W 080°11'0 0.0
2017-Nov-28 04:00N 25°47' W 080°11'0 0.0
2017-Nov-28 03:30N 25°47' W 080°11'0 0.0
2017-Nov-28 03:00N 25°47' W 080°11'0 0.0
2017-Nov-28 02:30N 25°47' W 080°11'0 0.0
2017-Nov-28 02:00N 25°47' W 080°11'0 0.0
2017-Nov-28 01:31N 25°47' W 080°11'0 0.0
2017-Nov-28 01:00N 25°47' W 080°11'0 0.0
2017-Nov-28 00:30N 25°47' W 080°11'0 0.0
2017-Nov-28 00:01N 25°47' W 080°11'0 0.0
2017-Nov-27 23:30N 25°47' W 080°11'0 0.0
2017-Nov-27 23:00N 25°47' W 080°11'0 0.0
2017-Nov-27 22:30N 25°47' W 080°11'0 0.0
2017-Nov-27 22:01N 25°47' W 080°11'0 0.0
2017-Nov-27 21:30N 25°47' W 080°11'0 0.0
2017-Nov-27 21:00N 25°47' W 080°11'0 0.0
2017-Nov-27 20:31N 25°47' W 080°11'0 0.0
2017-Nov-27 20:00N 25°47' W 080°11'0 0.0
2017-Nov-27 19:31N 25°47' W 080°11'0 0.0
2017-Nov-27 19:01N 25°47' W 080°11'0 0.0
2017-Nov-27 18:30N 25°47' W 080°11'0 0.0
2017-Nov-27 18:00N 25°47' W 080°11'0 0.0
2017-Nov-27 17:30N 25°47' W 080°11'0 0.0
2017-Nov-27 17:00N 25°47' W 080°11'0 0.0
2017-Nov-27 16:30N 25°47' W 080°11'0 0.0
2017-Nov-27 16:00N 25°47' W 080°11'0 0.0
2017-Nov-27 15:30N 25°47' W 080°11'0 0.0
2017-Nov-27 15:00N 25°47' W 080°11'0 0.0
2017-Nov-27 14:31N 25°47' W 080°11'0 0.0
2017-Nov-27 14:01N 25°47' W 080°11'0 0.0
2017-Nov-27 13:30N 25°47' W 080°11'0 0.0
2017-Nov-27 13:01N 25°47' W 080°11'0 0.0
2017-Nov-27 12:30N 25°47' W 080°11'0 0.0
2017-Nov-27 12:00N 25°47' W 080°11'0 0.0
2017-Nov-27 11:31N 25°47' W 080°11'0 0.0
2017-Nov-27 11:00N 25°47' W 080°11'0 0.0
2017-Nov-27 10:30N 25°47' W 080°11'0 0.0
2017-Nov-27 10:01N 25°47' W 080°11'0 0.0
2017-Nov-27 09:30N 25°47' W 080°11'0 0.0
2017-Nov-27 09:00N 25°47' W 080°11'0 0.0
2017-Nov-27 08:31N 25°47' W 080°11'0 0.0
2017-Nov-27 08:01N 25°47' W 080°11'0 0.0
2017-Nov-27 07:30N 25°47' W 080°11'0 0.0
2017-Nov-27 07:00N 25°47' W 080°11'0 0.0
2017-Nov-27 06:31N 25°47' W 080°11'0 0.0
2017-Nov-27 06:00N 25°47' W 080°11'0 0.0
2017-Nov-27 05:30N 25°47' W 080°11'0 0.0
2017-Nov-27 05:01N 25°47' W 080°11'0 0.0
2017-Nov-27 04:30N 25°47' W 080°11'0 0.0
2017-Nov-27 04:00N 25°47' W 080°11'0 0.0
2017-Nov-27 03:30N 25°47' W 080°11'0 0.0
2017-Nov-27 03:01N 25°47' W 080°11'0 0.0
2017-Nov-27 02:31N 25°47' W 080°11'0 0.0
2017-Nov-27 02:00N 25°47' W 080°11'0 0.0
2017-Nov-27 01:30N 25°47' W 080°11'0 0.0
2017-Nov-27 01:00N 25°47' W 080°11'  

Dump ship's entire track history